sensor_id;sensor_type;location;lat;lon;timestamp;P1;durP1;ratioP1;P2;durP2;ratioP2
19084;SDS011;9675;51.538;6.728;2022-11-20T00:01:29;2.57;;;2.00;;
19084;SDS011;9675;51.538;6.728;2022-11-20T00:03:57;4.60;;;2.83;;
19084;SDS011;9675;51.538;6.728;2022-11-20T00:06:25;5.13;;;2.90;;
19084;SDS011;9675;51.538;6.728;2022-11-20T00:08:56;5.57;;;2.77;;
19084;SDS011;9675;51.538;6.728;2022-11-20T00:11:26;7.37;;;3.13;;
19084;SDS011;9675;51.538;6.728;2022-11-20T00:13:55;6.20;;;2.60;;
19084;SDS011;9675;51.538;6.728;2022-11-20T00:16:26;5.03;;;2.13;;
19084;SDS011;9675;51.538;6.728;2022-11-20T00:18:55;8.53;;;1.97;;
19084;SDS011;9675;51.538;6.728;2022-11-20T00:21:23;10.13;;;3.37;;
19084;SDS011;9675;51.538;6.728;2022-11-20T00:23:53;8.57;;;2.93;;
19084;SDS011;9675;51.538;6.728;2022-11-20T00:26:24;5.27;;;2.43;;
19084;SDS011;9675;51.538;6.728;2022-11-20T00:28:53;5.23;;;2.53;;
19084;SDS011;9675;51.538;6.728;2022-11-20T00:31:22;2.33;;;1.73;;
19084;SDS011;9675;51.538;6.728;2022-11-20T00:33:49;5.87;;;2.90;;
19084;SDS011;9675;51.538;6.728;2022-11-20T00:36:17;9.70;;;2.70;;
19084;SDS011;9675;51.538;6.728;2022-11-20T00:38:46;8.47;;;3.17;;
19084;SDS011;9675;51.538;6.728;2022-11-20T00:41:19;3.20;;;2.07;;
19084;SDS011;9675;51.538;6.728;2022-11-20T00:43:46;8.90;;;3.73;;
19084;SDS011;9675;51.538;6.728;2022-11-20T00:46:14;5.47;;;2.93;;
19084;SDS011;9675;51.538;6.728;2022-11-20T00:48:43;4.53;;;1.90;;
19084;SDS011;9675;51.538;6.728;2022-11-20T00:51:12;3.50;;;2.20;;
19084;SDS011;9675;51.538;6.728;2022-11-20T00:53:41;6.13;;;3.40;;
19084;SDS011;9675;51.538;6.728;2022-11-20T00:56:10;6.03;;;3.10;;
19084;SDS011;9675;51.538;6.728;2022-11-20T00:58:42;4.30;;;2.30;;
19084;SDS011;9675;51.538;6.728;2022-11-20T01:01:12;3.27;;;2.50;;
19084;SDS011;9675;51.538;6.728;2022-11-20T01:03:43;3.17;;;2.60;;
19084;SDS011;9675;51.538;6.728;2022-11-20T01:06:12;5.43;;;2.93;;
19084;SDS011;9675;51.538;6.728;2022-11-20T01:08:45;3.93;;;2.23;;
19084;SDS011;9675;51.538;6.728;2022-11-20T01:11:15;5.20;;;2.40;;
19084;SDS011;9675;51.538;6.728;2022-11-20T01:13:46;5.23;;;2.27;;
19084;SDS011;9675;51.538;6.728;2022-11-20T01:16:16;4.30;;;2.30;;
19084;SDS011;9675;51.538;6.728;2022-11-20T01:18:46;3.30;;;1.67;;
19084;SDS011;9675;51.538;6.728;2022-11-20T01:21:17;6.50;;;2.67;;
19084;SDS011;9675;51.538;6.728;2022-11-20T01:23:47;6.93;;;2.50;;
19084;SDS011;9675;51.538;6.728;2022-11-20T01:26:16;6.47;;;2.30;;
19084;SDS011;9675;51.538;6.728;2022-11-20T01:28:47;6.37;;;2.30;;
19084;SDS011;9675;51.538;6.728;2022-11-20T01:31:17;5.20;;;3.13;;
19084;SDS011;9675;51.538;6.728;2022-11-20T01:33:48;4.47;;;2.50;;
19084;SDS011;9675;51.538;6.728;2022-11-20T01:36:18;8.33;;;2.97;;
19084;SDS011;9675;51.538;6.728;2022-11-20T01:38:47;6.93;;;2.83;;
19084;SDS011;9675;51.538;6.728;2022-11-20T01:41:17;4.83;;;2.90;;
19084;SDS011;9675;51.538;6.728;2022-11-20T01:43:59;4.83;;;2.53;;
19084;SDS011;9675;51.538;6.728;2022-11-20T01:46:28;7.47;;;2.40;;
19084;SDS011;9675;51.538;6.728;2022-11-20T01:48:57;6.03;;;3.27;;
19084;SDS011;9675;51.538;6.728;2022-11-20T01:51:33;2.50;;;1.83;;
19084;SDS011;9675;51.538;6.728;2022-11-20T01:54:06;4.13;;;2.03;;
19084;SDS011;9675;51.538;6.728;2022-11-20T01:56:41;2.13;;;1.47;;
19084;SDS011;9675;51.538;6.728;2022-11-20T01:59:13;3.27;;;2.03;;
19084;SDS011;9675;51.538;6.728;2022-11-20T02:01:45;4.17;;;2.30;;
19084;SDS011;9675;51.538;6.728;2022-11-20T02:04:13;4.87;;;2.27;;
19084;SDS011;9675;51.538;6.728;2022-11-20T02:06:42;4.53;;;2.50;;
19084;SDS011;9675;51.538;6.728;2022-11-20T02:09:15;5.13;;;1.73;;
19084;SDS011;9675;51.538;6.728;2022-11-20T02:11:42;5.13;;;2.73;;
19084;SDS011;9675;51.538;6.728;2022-11-20T02:14:09;6.57;;;2.90;;
19084;SDS011;9675;51.538;6.728;2022-11-20T02:16:37;2.07;;;1.30;;
19084;SDS011;9675;51.538;6.728;2022-11-20T02:19:13;4.07;;;2.03;;
19084;SDS011;9675;51.538;6.728;2022-11-20T02:21:51;6.43;;;1.63;;
19084;SDS011;9675;51.538;6.728;2022-11-20T02:24:29;3.23;;;1.43;;
19084;SDS011;9675;51.538;6.728;2022-11-20T02:26:57;4.97;;;2.23;;
19084;SDS011;9675;51.538;6.728;2022-11-20T02:29:31;4.17;;;2.53;;
19084;SDS011;9675;51.538;6.728;2022-11-20T02:32:04;3.47;;;2.67;;
19084;SDS011;9675;51.538;6.728;2022-11-20T02:34:31;5.57;;;2.97;;
19084;SDS011;9675;51.538;6.728;2022-11-20T02:36:58;4.27;;;2.23;;
19084;SDS011;9675;51.538;6.728;2022-11-20T02:39:26;5.93;;;3.00;;
19084;SDS011;9675;51.538;6.728;2022-11-20T02:41:56;3.07;;;2.13;;
19084;SDS011;9675;51.538;6.728;2022-11-20T02:44:23;8.43;;;3.47;;
19084;SDS011;9675;51.538;6.728;2022-11-20T02:46:50;3.03;;;2.03;;
19084;SDS011;9675;51.538;6.728;2022-11-20T02:49:17;2.07;;;1.70;;
19084;SDS011;9675;51.538;6.728;2022-11-20T02:51:44;4.47;;;2.10;;
19084;SDS011;9675;51.538;6.728;2022-11-20T02:54:11;6.60;;;3.20;;
19084;SDS011;9675;51.538;6.728;2022-11-20T02:56:39;5.30;;;2.33;;
19084;SDS011;9675;51.538;6.728;2022-11-20T02:59:06;3.40;;;1.80;;
19084;SDS011;9675;51.538;6.728;2022-11-20T03:01:34;2.33;;;1.60;;
19084;SDS011;9675;51.538;6.728;2022-11-20T03:04:01;3.80;;;1.87;;
19084;SDS011;9675;51.538;6.728;2022-11-20T03:06:28;4.70;;;2.73;;
19084;SDS011;9675;51.538;6.728;2022-11-20T03:08:55;6.90;;;2.57;;
19084;SDS011;9675;51.538;6.728;2022-11-20T03:11:22;1.47;;;1.27;;
19084;SDS011;9675;51.538;6.728;2022-11-20T03:13:51;5.37;;;2.63;;
19084;SDS011;9675;51.538;6.728;2022-11-20T03:16:18;4.20;;;1.93;;
19084;SDS011;9675;51.538;6.728;2022-11-20T03:18:48;3.13;;;2.27;;
19084;SDS011;9675;51.538;6.728;2022-11-20T03:21:17;6.13;;;3.37;;
19084;SDS011;9675;51.538;6.728;2022-11-20T03:23:45;4.00;;;2.50;;
19084;SDS011;9675;51.538;6.728;2022-11-20T03:26:12;9.60;;;3.10;;
19084;SDS011;9675;51.538;6.728;2022-11-20T03:28:46;7.40;;;2.90;;
19084;SDS011;9675;51.538;6.728;2022-11-20T03:31:17;3.40;;;1.77;;
19084;SDS011;9675;51.538;6.728;2022-11-20T03:33:46;5.20;;;2.77;;
19084;SDS011;9675;51.538;6.728;2022-11-20T03:36:14;6.10;;;2.23;;
19084;SDS011;9675;51.538;6.728;2022-11-20T03:38:43;4.57;;;2.30;;
19084;SDS011;9675;51.538;6.728;2022-11-20T03:41:11;5.07;;;2.17;;
19084;SDS011;9675;51.538;6.728;2022-11-20T03:43:46;12.17;;;2.70;;
19084;SDS011;9675;51.538;6.728;2022-11-20T03:46:14;7.80;;;2.17;;
19084;SDS011;9675;51.538;6.728;2022-11-20T03:48:43;3.60;;;2.17;;
19084;SDS011;9675;51.538;6.728;2022-11-20T03:51:11;3.57;;;2.00;;
19084;SDS011;9675;51.538;6.728;2022-11-20T03:53:40;7.37;;;2.63;;
19084;SDS011;9675;51.538;6.728;2022-11-20T03:56:10;5.03;;;2.23;;
19084;SDS011;9675;51.538;6.728;2022-11-20T03:58:40;4.20;;;2.30;;
19084;SDS011;9675;51.538;6.728;2022-11-20T04:01:07;7.60;;;2.60;;
19084;SDS011;9675;51.538;6.728;2022-11-20T04:03:39;4.87;;;2.17;;
19084;SDS011;9675;51.538;6.728;2022-11-20T04:06:09;4.43;;;2.70;;
19084;SDS011;9675;51.538;6.728;2022-11-20T04:08:38;2.53;;;1.93;;
19084;SDS011;9675;51.538;6.728;2022-11-20T04:11:10;4.87;;;2.73;;
19084;SDS011;9675;51.538;6.728;2022-11-20T04:13:39;5.40;;;2.33;;
19084;SDS011;9675;51.538;6.728;2022-11-20T04:16:08;2.47;;;2.23;;
19084;SDS011;9675;51.538;6.728;2022-11-20T04:18:36;3.73;;;1.70;;
19084;SDS011;9675;51.538;6.728;2022-11-20T04:21:04;4.33;;;2.67;;
19084;SDS011;9675;51.538;6.728;2022-11-20T04:23:32;6.30;;;2.50;;
19084;SDS011;9675;51.538;6.728;2022-11-20T04:26:03;3.17;;;2.13;;
19084;SDS011;9675;51.538;6.728;2022-11-20T04:28:32;4.80;;;2.43;;
19084;SDS011;9675;51.538;6.728;2022-11-20T04:31:03;6.30;;;2.67;;
19084;SDS011;9675;51.538;6.728;2022-11-20T04:33:32;3.43;;;2.13;;
19084;SDS011;9675;51.538;6.728;2022-11-20T04:36:02;3.00;;;1.87;;
19084;SDS011;9675;51.538;6.728;2022-11-20T04:38:31;4.07;;;2.20;;
19084;SDS011;9675;51.538;6.728;2022-11-20T04:40:59;5.10;;;2.73;;
19084;SDS011;9675;51.538;6.728;2022-11-20T04:43:29;5.20;;;2.47;;
19084;SDS011;9675;51.538;6.728;2022-11-20T04:45:57;3.13;;;1.77;;
19084;SDS011;9675;51.538;6.728;2022-11-20T04:48:26;3.50;;;1.97;;
19084;SDS011;9675;51.538;6.728;2022-11-20T04:50:55;5.37;;;2.83;;
19084;SDS011;9675;51.538;6.728;2022-11-20T04:53:24;4.73;;;2.40;;
19084;SDS011;9675;51.538;6.728;2022-11-20T04:55:51;5.83;;;2.33;;
19084;SDS011;9675;51.538;6.728;2022-11-20T04:58:25;5.67;;;2.77;;
19084;SDS011;9675;51.538;6.728;2022-11-20T05:00:52;5.03;;;2.47;;
19084;SDS011;9675;51.538;6.728;2022-11-20T05:03:20;6.17;;;2.93;;
19084;SDS011;9675;51.538;6.728;2022-11-20T05:05:46;4.57;;;2.37;;
19084;SDS011;9675;51.538;6.728;2022-11-20T05:08:13;3.23;;;2.57;;
19084;SDS011;9675;51.538;6.728;2022-11-20T05:10:42;4.70;;;1.90;;
19084;SDS011;9675;51.538;6.728;2022-11-20T05:13:09;5.70;;;3.03;;
19084;SDS011;9675;51.538;6.728;2022-11-20T05:15:36;5.93;;;3.13;;
19084;SDS011;9675;51.538;6.728;2022-11-20T05:18:03;6.67;;;3.27;;
19084;SDS011;9675;51.538;6.728;2022-11-20T05:20:30;5.37;;;2.17;;
19084;SDS011;9675;51.538;6.728;2022-11-20T05:22:57;4.53;;;2.80;;
19084;SDS011;9675;51.538;6.728;2022-11-20T05:25:24;6.90;;;3.37;;
19084;SDS011;9675;51.538;6.728;2022-11-20T05:27:53;6.03;;;2.63;;
19084;SDS011;9675;51.538;6.728;2022-11-20T05:30:21;3.97;;;2.50;;
19084;SDS011;9675;51.538;6.728;2022-11-20T05:32:48;8.50;;;2.90;;
19084;SDS011;9675;51.538;6.728;2022-11-20T05:35:15;4.60;;;2.27;;
19084;SDS011;9675;51.538;6.728;2022-11-20T05:37:42;5.17;;;2.43;;
19084;SDS011;9675;51.538;6.728;2022-11-20T05:40:09;5.60;;;2.60;;
19084;SDS011;9675;51.538;6.728;2022-11-20T05:42:38;4.70;;;2.90;;
19084;SDS011;9675;51.538;6.728;2022-11-20T05:45:07;3.63;;;1.97;;
19084;SDS011;9675;51.538;6.728;2022-11-20T05:47:35;4.87;;;2.67;;
19084;SDS011;9675;51.538;6.728;2022-11-20T05:50:02;5.93;;;2.80;;
19084;SDS011;9675;51.538;6.728;2022-11-20T05:52:30;4.50;;;2.80;;
19084;SDS011;9675;51.538;6.728;2022-11-20T05:54:57;7.10;;;4.00;;
19084;SDS011;9675;51.538;6.728;2022-11-20T05:57:24;7.13;;;2.87;;
19084;SDS011;9675;51.538;6.728;2022-11-20T05:59:51;4.50;;;2.67;;
19084;SDS011;9675;51.538;6.728;2022-11-20T06:02:19;4.97;;;2.97;;
19084;SDS011;9675;51.538;6.728;2022-11-20T06:04:46;5.03;;;3.00;;
19084;SDS011;9675;51.538;6.728;2022-11-20T06:07:13;10.50;;;3.70;;
19084;SDS011;9675;51.538;6.728;2022-11-20T06:09:40;4.37;;;2.70;;
19084;SDS011;9675;51.538;6.728;2022-11-20T06:12:07;4.80;;;2.40;;
19084;SDS011;9675;51.538;6.728;2022-11-20T06:14:34;6.33;;;2.87;;
19084;SDS011;9675;51.538;6.728;2022-11-20T06:17:01;2.87;;;1.90;;
19084;SDS011;9675;51.538;6.728;2022-11-20T06:19:30;4.80;;;2.50;;
19084;SDS011;9675;51.538;6.728;2022-11-20T06:21:57;3.70;;;1.63;;
19084;SDS011;9675;51.538;6.728;2022-11-20T06:24:24;4.03;;;2.20;;
19084;SDS011;9675;51.538;6.728;2022-11-20T06:26:51;4.50;;;2.07;;
19084;SDS011;9675;51.538;6.728;2022-11-20T06:29:18;5.93;;;2.20;;
19084;SDS011;9675;51.538;6.728;2022-11-20T06:31:45;5.70;;;2.90;;
19084;SDS011;9675;51.538;6.728;2022-11-20T06:34:12;6.03;;;2.50;;
19084;SDS011;9675;51.538;6.728;2022-11-20T06:36:41;4.30;;;2.33;;
19084;SDS011;9675;51.538;6.728;2022-11-20T06:39:08;4.50;;;2.67;;
19084;SDS011;9675;51.538;6.728;2022-11-20T06:41:35;3.83;;;1.70;;
19084;SDS011;9675;51.538;6.728;2022-11-20T06:44:03;3.87;;;3.00;;
19084;SDS011;9675;51.538;6.728;2022-11-20T06:46:31;3.70;;;2.30;;
19084;SDS011;9675;51.538;6.728;2022-11-20T06:48:58;3.47;;;2.03;;
19084;SDS011;9675;51.538;6.728;2022-11-20T06:51:25;4.63;;;2.83;;
19084;SDS011;9675;51.538;6.728;2022-11-20T06:53:54;5.67;;;2.40;;
19084;SDS011;9675;51.538;6.728;2022-11-20T06:56:21;4.87;;;2.70;;
19084;SDS011;9675;51.538;6.728;2022-11-20T06:58:48;2.87;;;2.00;;
19084;SDS011;9675;51.538;6.728;2022-11-20T07:01:15;5.90;;;2.77;;
19084;SDS011;9675;51.538;6.728;2022-11-20T07:03:42;3.47;;;1.90;;
19084;SDS011;9675;51.538;6.728;2022-11-20T07:06:09;4.00;;;2.23;;
19084;SDS011;9675;51.538;6.728;2022-11-20T07:08:37;6.73;;;3.17;;
19084;SDS011;9675;51.538;6.728;2022-11-20T07:11:06;5.20;;;2.57;;
19084;SDS011;9675;51.538;6.728;2022-11-20T07:13:33;5.60;;;2.47;;
19084;SDS011;9675;51.538;6.728;2022-11-20T07:16:01;5.53;;;2.40;;
19084;SDS011;9675;51.538;6.728;2022-11-20T07:18:31;4.63;;;2.77;;
19084;SDS011;9675;51.538;6.728;2022-11-20T07:21:00;4.27;;;2.30;;
19084;SDS011;9675;51.538;6.728;2022-11-20T07:23:27;7.17;;;2.87;;
19084;SDS011;9675;51.538;6.728;2022-11-20T07:25:54;5.47;;;3.00;;
19084;SDS011;9675;51.538;6.728;2022-11-20T07:28:22;6.67;;;2.87;;
19084;SDS011;9675;51.538;6.728;2022-11-20T07:30:50;6.93;;;1.93;;
19084;SDS011;9675;51.538;6.728;2022-11-20T07:33:18;8.83;;;2.97;;
19084;SDS011;9675;51.538;6.728;2022-11-20T07:35:46;3.13;;;2.03;;
19084;SDS011;9675;51.538;6.728;2022-11-20T07:38:13;8.03;;;1.97;;
19084;SDS011;9675;51.538;6.728;2022-11-20T07:40:40;5.53;;;2.97;;
19084;SDS011;9675;51.538;6.728;2022-11-20T07:43:07;5.20;;;3.33;;
19084;SDS011;9675;51.538;6.728;2022-11-20T07:45:36;4.63;;;2.27;;
19084;SDS011;9675;51.538;6.728;2022-11-20T07:48:03;8.13;;;2.77;;
19084;SDS011;9675;51.538;6.728;2022-11-20T07:50:30;5.47;;;2.53;;
19084;SDS011;9675;51.538;6.728;2022-11-20T07:53:01;6.23;;;2.87;;
19084;SDS011;9675;51.538;6.728;2022-11-20T07:55:30;4.03;;;2.93;;
19084;SDS011;9675;51.538;6.728;2022-11-20T07:57:58;3.30;;;2.23;;
19084;SDS011;9675;51.538;6.728;2022-11-20T08:00:25;4.83;;;2.63;;
19084;SDS011;9675;51.538;6.728;2022-11-20T08:02:54;5.47;;;2.93;;
19084;SDS011;9675;51.538;6.728;2022-11-20T08:05:21;6.30;;;3.47;;
19084;SDS011;9675;51.538;6.728;2022-11-20T08:07:49;4.07;;;2.70;;
19084;SDS011;9675;51.538;6.728;2022-11-20T08:10:16;6.20;;;2.50;;
19084;SDS011;9675;51.538;6.728;2022-11-20T08:12:43;4.80;;;2.63;;
19084;SDS011;9675;51.538;6.728;2022-11-20T08:15:29;7.33;;;3.63;;
19084;SDS011;9675;51.538;6.728;2022-11-20T08:18:02;5.27;;;3.30;;
19084;SDS011;9675;51.538;6.728;2022-11-20T08:20:32;5.23;;;3.37;;
19084;SDS011;9675;51.538;6.728;2022-11-20T08:23:00;9.17;;;2.93;;
19084;SDS011;9675;51.538;6.728;2022-11-20T08:25:31;4.97;;;3.40;;
19084;SDS011;9675;51.538;6.728;2022-11-20T08:28:00;3.63;;;2.53;;
19084;SDS011;9675;51.538;6.728;2022-11-20T08:30:29;4.30;;;2.67;;
19084;SDS011;9675;51.538;6.728;2022-11-20T08:33:00;8.47;;;3.83;;
19084;SDS011;9675;51.538;6.728;2022-11-20T08:35:32;4.10;;;3.27;;
19084;SDS011;9675;51.538;6.728;2022-11-20T08:38:00;3.00;;;2.10;;
19084;SDS011;9675;51.538;6.728;2022-11-20T08:40:28;6.27;;;2.93;;
19084;SDS011;9675;51.538;6.728;2022-11-20T08:42:55;7.10;;;2.83;;
19084;SDS011;9675;51.538;6.728;2022-11-20T08:45:22;5.13;;;3.47;;
19084;SDS011;9675;51.538;6.728;2022-11-20T08:47:49;5.87;;;2.87;;
19084;SDS011;9675;51.538;6.728;2022-11-20T08:50:17;8.60;;;3.87;;
19084;SDS011;9675;51.538;6.728;2022-11-20T08:52:45;5.87;;;3.77;;
19084;SDS011;9675;51.538;6.728;2022-11-20T08:55:12;7.00;;;4.17;;
19084;SDS011;9675;51.538;6.728;2022-11-20T08:57:39;10.00;;;4.27;;
19084;SDS011;9675;51.538;6.728;2022-11-20T09:00:06;7.07;;;3.37;;
19084;SDS011;9675;51.538;6.728;2022-11-20T09:02:36;10.50;;;4.47;;
19084;SDS011;9675;51.538;6.728;2022-11-20T09:05:03;7.97;;;4.17;;
19084;SDS011;9675;51.538;6.728;2022-11-20T09:07:32;7.13;;;3.17;;
19084;SDS011;9675;51.538;6.728;2022-11-20T09:09:59;9.40;;;4.20;;
19084;SDS011;9675;51.538;6.728;2022-11-20T09:12:26;8.80;;;5.47;;
19084;SDS011;9675;51.538;6.728;2022-11-20T09:14:53;6.00;;;2.57;;
19084;SDS011;9675;51.538;6.728;2022-11-20T09:17:20;3.97;;;2.90;;
19084;SDS011;9675;51.538;6.728;2022-11-20T09:19:47;12.50;;;4.87;;
19084;SDS011;9675;51.538;6.728;2022-11-20T09:22:14;6.57;;;3.70;;
19084;SDS011;9675;51.538;6.728;2022-11-20T09:24:43;8.07;;;4.40;;
19084;SDS011;9675;51.538;6.728;2022-11-20T09:27:10;7.20;;;3.63;;
19084;SDS011;9675;51.538;6.728;2022-11-20T09:29:37;10.13;;;5.13;;
19084;SDS011;9675;51.538;6.728;2022-11-20T09:32:04;9.60;;;4.37;;
19084;SDS011;9675;51.538;6.728;2022-11-20T09:34:31;10.37;;;6.07;;
19084;SDS011;9675;51.538;6.728;2022-11-20T09:36:58;12.30;;;5.07;;
19084;SDS011;9675;51.538;6.728;2022-11-20T09:39:25;6.23;;;3.20;;
19084;SDS011;9675;51.538;6.728;2022-11-20T09:41:59;12.17;;;5.67;;
19084;SDS011;9675;51.538;6.728;2022-11-20T09:45:00;9.67;;;5.83;;
19084;SDS011;9675;51.538;6.728;2022-11-20T09:47:45;16.13;;;7.13;;
19084;SDS011;9675;51.538;6.728;2022-11-20T09:50:32;11.87;;;5.90;;
19084;SDS011;9675;51.538;6.728;2022-11-20T09:53:12;12.83;;;7.00;;
19084;SDS011;9675;51.538;6.728;2022-11-20T09:55:50;11.17;;;3.80;;
19084;SDS011;9675;51.538;6.728;2022-11-20T09:58:21;22.07;;;8.93;;
19084;SDS011;9675;51.538;6.728;2022-11-20T10:00:59;21.83;;;8.87;;
19084;SDS011;9675;51.538;6.728;2022-11-20T10:03:43;12.63;;;6.57;;
19084;SDS011;9675;51.538;6.728;2022-11-20T10:06:21;23.60;;;9.60;;
19084;SDS011;9675;51.538;6.728;2022-11-20T10:08:58;12.13;;;7.33;;
19084;SDS011;9675;51.538;6.728;2022-11-20T10:11:45;16.17;;;6.93;;
19084;SDS011;9675;51.538;6.728;2022-11-20T10:14:26;15.70;;;7.87;;
19084;SDS011;9675;51.538;6.728;2022-11-20T10:17:12;15.43;;;6.20;;
19084;SDS011;9675;51.538;6.728;2022-11-20T10:19:56;16.47;;;6.53;;
19084;SDS011;9675;51.538;6.728;2022-11-20T10:22:50;11.43;;;5.93;;
19084;SDS011;9675;51.538;6.728;2022-11-20T10:25:39;17.67;;;6.53;;
19084;SDS011;9675;51.538;6.728;2022-11-20T10:28:17;11.70;;;5.63;;
19084;SDS011;9675;51.538;6.728;2022-11-20T10:31:02;12.27;;;6.17;;
19084;SDS011;9675;51.538;6.728;2022-11-20T10:33:36;7.57;;;4.23;;
19084;SDS011;9675;51.538;6.728;2022-11-20T10:36:11;8.83;;;5.53;;
19084;SDS011;9675;51.538;6.728;2022-11-20T10:38:45;21.93;;;8.00;;
19084;SDS011;9675;51.538;6.728;2022-11-20T10:41:21;11.77;;;5.23;;
19084;SDS011;9675;51.538;6.728;2022-11-20T10:43:59;11.13;;;5.90;;
19084;SDS011;9675;51.538;6.728;2022-11-20T10:49:48;5.73;;;3.33;;
19084;SDS011;9675;51.538;6.728;2022-11-20T10:52:25;12.47;;;7.03;;
19084;SDS011;9675;51.538;6.728;2022-11-20T10:55:06;13.07;;;6.00;;
19084;SDS011;9675;51.538;6.728;2022-11-20T10:57:51;11.80;;;6.40;;
19084;SDS011;9675;51.538;6.728;2022-11-20T11:00:30;12.90;;;5.73;;
19084;SDS011;9675;51.538;6.728;2022-11-20T11:02:59;10.70;;;5.83;;
19084;SDS011;9675;51.538;6.728;2022-11-20T11:05:37;15.40;;;4.97;;
19084;SDS011;9675;51.538;6.728;2022-11-20T11:08:12;9.10;;;5.10;;
19084;SDS011;9675;51.538;6.728;2022-11-20T11:10:44;12.80;;;5.87;;
19084;SDS011;9675;51.538;6.728;2022-11-20T11:13:20;8.27;;;4.17;;
19084;SDS011;9675;51.538;6.728;2022-11-20T11:15:48;11.83;;;5.17;;
19084;SDS011;9675;51.538;6.728;2022-11-20T11:18:24;13.77;;;7.17;;
19084;SDS011;9675;51.538;6.728;2022-11-20T11:20:54;13.57;;;5.37;;
19084;SDS011;9675;51.538;6.728;2022-11-20T11:23:29;14.67;;;5.97;;
19084;SDS011;9675;51.538;6.728;2022-11-20T11:26:00;11.03;;;5.10;;
19084;SDS011;9675;51.538;6.728;2022-11-20T11:28:30;11.10;;;5.33;;
19084;SDS011;9675;51.538;6.728;2022-11-20T11:30:58;9.47;;;4.23;;
19084;SDS011;9675;51.538;6.728;2022-11-20T11:33:27;12.70;;;5.70;;
19084;SDS011;9675;51.538;6.728;2022-11-20T11:35:59;19.47;;;7.17;;
19084;SDS011;9675;51.538;6.728;2022-11-20T11:38:30;15.93;;;6.27;;
19084;SDS011;9675;51.538;6.728;2022-11-20T11:41:02;13.40;;;6.00;;
19084;SDS011;9675;51.538;6.728;2022-11-20T11:43:32;13.23;;;6.53;;
19084;SDS011;9675;51.538;6.728;2022-11-20T11:46:23;14.53;;;5.27;;
19084;SDS011;9675;51.538;6.728;2022-11-20T11:48:58;8.93;;;3.63;;
19084;SDS011;9675;51.538;6.728;2022-11-20T11:51:31;11.33;;;4.63;;
19084;SDS011;9675;51.538;6.728;2022-11-20T11:54:10;5.33;;;3.80;;
19084;SDS011;9675;51.538;6.728;2022-11-20T11:56:43;18.97;;;8.00;;
19084;SDS011;9675;51.538;6.728;2022-11-20T11:59:14;16.33;;;7.17;;
19084;SDS011;9675;51.538;6.728;2022-11-20T12:01:53;14.40;;;7.07;;
19084;SDS011;9675;51.538;6.728;2022-11-20T12:04:35;14.50;;;7.13;;
19084;SDS011;9675;51.538;6.728;2022-11-20T12:07:11;14.77;;;6.93;;
19084;SDS011;9675;51.538;6.728;2022-11-20T12:09:47;11.97;;;6.13;;
19084;SDS011;9675;51.538;6.728;2022-11-20T12:12:21;17.13;;;7.80;;
19084;SDS011;9675;51.538;6.728;2022-11-20T12:14:55;17.93;;;6.40;;
19084;SDS011;9675;51.538;6.728;2022-11-20T12:17:24;14.17;;;6.80;;
19084;SDS011;9675;51.538;6.728;2022-11-20T12:19:52;17.77;;;7.33;;
19084;SDS011;9675;51.538;6.728;2022-11-20T12:22:25;19.27;;;7.73;;
19084;SDS011;9675;51.538;6.728;2022-11-20T12:25:06;12.77;;;5.73;;
19084;SDS011;9675;51.538;6.728;2022-11-20T12:27:48;14.73;;;5.63;;
19084;SDS011;9675;51.538;6.728;2022-11-20T12:30:38;7.57;;;3.87;;
19084;SDS011;9675;51.538;6.728;2022-11-20T12:33:23;12.43;;;5.23;;
19084;SDS011;9675;51.538;6.728;2022-11-20T12:36:35;14.33;;;5.97;;
19084;SDS011;9675;51.538;6.728;2022-11-20T12:39:15;14.23;;;5.23;;
19084;SDS011;9675;51.538;6.728;2022-11-20T12:42:16;16.17;;;6.27;;
19084;SDS011;9675;51.538;6.728;2022-11-20T12:45:35;10.70;;;5.27;;
19084;SDS011;9675;51.538;6.728;2022-11-20T12:48:26;20.20;;;7.20;;
19084;SDS011;9675;51.538;6.728;2022-11-20T12:51:21;16.87;;;6.97;;
19084;SDS011;9675;51.538;6.728;2022-11-20T12:54:11;18.57;;;6.93;;
19084;SDS011;9675;51.538;6.728;2022-11-20T12:57:06;15.03;;;5.17;;
19084;SDS011;9675;51.538;6.728;2022-11-20T12:59:57;15.53;;;6.23;;
19084;SDS011;9675;51.538;6.728;2022-11-20T13:05:59;12.73;;;5.70;;
19084;SDS011;9675;51.538;6.728;2022-11-20T13:08:38;11.30;;;6.23;;
19084;SDS011;9675;51.538;6.728;2022-11-20T13:11:11;17.37;;;6.80;;
19084;SDS011;9675;51.538;6.728;2022-11-20T13:13:53;9.37;;;4.20;;
19084;SDS011;9675;51.538;6.728;2022-11-20T13:16:40;12.33;;;4.90;;
19084;SDS011;9675;51.538;6.728;2022-11-20T13:19:15;10.30;;;4.67;;
19084;SDS011;9675;51.538;6.728;2022-11-20T13:21:44;16.33;;;6.10;;
19084;SDS011;9675;51.538;6.728;2022-11-20T13:24:22;12.90;;;5.27;;
19084;SDS011;9675;51.538;6.728;2022-11-20T13:29:46;12.67;;;5.10;;
19084;SDS011;9675;51.538;6.728;2022-11-20T13:32:27;13.70;;;5.87;;
19084;SDS011;9675;51.538;6.728;2022-11-20T13:34:58;18.33;;;6.70;;
19084;SDS011;9675;51.538;6.728;2022-11-20T13:37:28;16.63;;;6.87;;
19084;SDS011;9675;51.538;6.728;2022-11-20T13:40:12;10.20;;;5.37;;
19084;SDS011;9675;51.538;6.728;2022-11-20T13:42:53;8.80;;;3.53;;
19084;SDS011;9675;51.538;6.728;2022-11-20T13:45:28;11.90;;;4.70;;
19084;SDS011;9675;51.538;6.728;2022-11-20T13:47:58;13.50;;;5.93;;
19084;SDS011;9675;51.538;6.728;2022-11-20T13:50:38;14.40;;;6.53;;
19084;SDS011;9675;51.538;6.728;2022-11-20T13:53:25;14.33;;;4.93;;
19084;SDS011;9675;51.538;6.728;2022-11-20T13:56:17;12.50;;;5.20;;
19084;SDS011;9675;51.538;6.728;2022-11-20T13:58:58;13.67;;;5.87;;
19084;SDS011;9675;51.538;6.728;2022-11-20T14:01:39;12.73;;;5.70;;
19084;SDS011;9675;51.538;6.728;2022-11-20T14:04:12;9.93;;;4.27;;
19084;SDS011;9675;51.538;6.728;2022-11-20T14:06:46;12.47;;;5.07;;
19084;SDS011;9675;51.538;6.728;2022-11-20T14:09:24;16.60;;;6.80;;
19084;SDS011;9675;51.538;6.728;2022-11-20T14:11:55;16.57;;;7.43;;
19084;SDS011;9675;51.538;6.728;2022-11-20T14:14:23;16.57;;;6.30;;
19084;SDS011;9675;51.538;6.728;2022-11-20T14:16:52;16.73;;;7.00;;
19084;SDS011;9675;51.538;6.728;2022-11-20T14:19:32;15.93;;;6.60;;
19084;SDS011;9675;51.538;6.728;2022-11-20T14:22:09;11.53;;;4.00;;
19084;SDS011;9675;51.538;6.728;2022-11-20T14:24:44;12.00;;;5.60;;
19084;SDS011;9675;51.538;6.728;2022-11-20T14:27:16;11.60;;;4.67;;
19084;SDS011;9675;51.538;6.728;2022-11-20T14:29:46;11.70;;;4.47;;
19084;SDS011;9675;51.538;6.728;2022-11-20T14:32:17;18.70;;;5.73;;
19084;SDS011;9675;51.538;6.728;2022-11-20T14:34:48;10.40;;;5.17;;
19084;SDS011;9675;51.538;6.728;2022-11-20T14:37:18;14.30;;;6.17;;
19084;SDS011;9675;51.538;6.728;2022-11-20T14:39:50;14.20;;;6.63;;
19084;SDS011;9675;51.538;6.728;2022-11-20T14:42:21;15.93;;;6.13;;
19084;SDS011;9675;51.538;6.728;2022-11-20T14:44:52;21.57;;;7.53;;
19084;SDS011;9675;51.538;6.728;2022-11-20T14:47:23;14.83;;;7.03;;
19084;SDS011;9675;51.538;6.728;2022-11-20T14:49:54;10.87;;;5.77;;
19084;SDS011;9675;51.538;6.728;2022-11-20T14:52:24;18.10;;;7.00;;
19084;SDS011;9675;51.538;6.728;2022-11-20T14:54:53;15.63;;;6.27;;
19084;SDS011;9675;51.538;6.728;2022-11-20T14:57:26;18.07;;;6.67;;
19084;SDS011;9675;51.538;6.728;2022-11-20T15:00:05;14.63;;;6.53;;
19084;SDS011;9675;51.538;6.728;2022-11-20T15:02:45;20.13;;;6.63;;
19084;SDS011;9675;51.538;6.728;2022-11-20T15:05:14;18.27;;;7.97;;
19084;SDS011;9675;51.538;6.728;2022-11-20T15:07:43;17.53;;;7.67;;
19084;SDS011;9675;51.538;6.728;2022-11-20T15:10:19;20.10;;;7.63;;
19084;SDS011;9675;51.538;6.728;2022-11-20T15:12:50;18.83;;;8.03;;
19084;SDS011;9675;51.538;6.728;2022-11-20T15:15:21;16.23;;;7.13;;
19084;SDS011;9675;51.538;6.728;2022-11-20T15:17:55;19.63;;;7.03;;
19084;SDS011;9675;51.538;6.728;2022-11-20T15:20:24;21.03;;;7.00;;
19084;SDS011;9675;51.538;6.728;2022-11-20T15:22:56;22.73;;;9.40;;
19084;SDS011;9675;51.538;6.728;2022-11-20T15:25:23;14.43;;;6.67;;
19084;SDS011;9675;51.538;6.728;2022-11-20T15:27:53;9.73;;;5.07;;
19084;SDS011;9675;51.538;6.728;2022-11-20T15:30:23;19.50;;;6.80;;
19084;SDS011;9675;51.538;6.728;2022-11-20T15:32:50;19.40;;;6.60;;
19084;SDS011;9675;51.538;6.728;2022-11-20T15:35:17;20.63;;;6.97;;